createdAt,value
2022-09-25T00:05:01.631Z,0
2022-09-25T00:10:26.648Z,0
2022-09-25T00:15:50.113Z,0
2022-09-25T00:26:38.362Z,0
2022-09-25T00:32:01.383Z,0
2022-09-25T00:37:24.331Z,0
2022-09-25T00:42:47.754Z,0
2022-09-25T00:48:10.447Z,2
2022-09-25T00:53:35.913Z,0
2022-09-25T00:58:58.835Z,0
2022-09-25T01:04:29.182Z,1
2022-09-25T01:09:52.124Z,0
2022-09-25T01:15:14.774Z,0
2022-09-25T01:20:37.583Z,0
2022-09-25T01:26:03.291Z,3
2022-09-25T01:36:49.049Z,2
2022-09-25T01:42:14.248Z,0
2022-09-25T01:47:36.996Z,0
2022-09-25T01:53:00.846Z,0
2022-09-25T01:58:23.440Z,0
2022-09-25T02:03:53.536Z,0
2022-09-25T02:09:16.284Z,3
2022-09-25T02:14:39.563Z,0
2022-09-25T02:20:02.000Z,0
2022-09-25T02:25:24.597Z,0
2022-09-25T02:30:47.666Z,0
2022-09-25T02:36:10.403Z,3
2022-09-25T02:41:43.650Z,0
2022-09-25T02:47:06.478Z,0
2022-09-25T02:57:54.370Z,0
2022-09-25T03:03:22.698Z,0
2022-09-25T03:14:08.416Z,0
2022-09-25T03:19:33.689Z,0
2022-09-25T03:24:58.472Z,0
2022-09-25T03:30:21.114Z,0
2022-09-25T03:35:43.793Z,0
2022-09-25T03:41:06.410Z,0
2022-09-25T03:46:29.686Z,0
2022-09-25T03:51:54.735Z,0
2022-09-25T03:57:17.595Z,2
2022-09-25T04:02:43.110Z,0
2022-09-25T04:08:05.779Z,0
2022-09-25T04:13:31.292Z,0
2022-09-25T04:18:54.030Z,2
2022-09-25T04:24:24.065Z,0
2022-09-25T04:29:46.492Z,0
2022-09-25T04:35:12.632Z,0
2022-09-25T04:40:35.469Z,0
2022-09-25T04:45:58.365Z,0
2022-09-25T04:51:23.751Z,0
2022-09-25T05:02:09.719Z,0
2022-09-25T05:07:33.371Z,0
2022-09-25T05:12:56.120Z,8
2022-09-25T05:18:18.822Z,5
2022-09-25T05:23:41.551Z,15
2022-09-25T05:29:06.477Z,26
2022-09-25T05:34:29.490Z,27.4
2022-09-25T05:39:52.287Z,50.2
2022-09-25T05:50:40.438Z,96.8
2022-09-25T05:56:03.848Z,137.6
2022-09-25T06:01:27.031Z,160.1
2022-09-25T06:06:50.457Z,206.8
2022-09-25T06:12:13.503Z,335.5
2022-09-25T06:17:36.790Z,340.7
2022-09-25T06:22:59.754Z,333.2
2022-09-25T06:34:04.954Z,271.7
2022-09-25T06:44:52.367Z,340.8
2022-09-25T06:50:15.603Z,336.9
2022-09-25T07:01:22.404Z,414.3
2022-09-25T07:06:45.529Z,443.9
2022-09-25T07:12:08.425Z,409.9
2022-09-25T07:17:31.348Z,536.6
2022-09-25T07:22:54.548Z,420.5
2022-09-25T07:28:22.129Z,398.1
2022-09-25T07:33:44.872Z,293.8
2022-09-25T07:39:07.755Z,908.7
2022-09-25T07:44:39.596Z,983.5
2022-09-25T07:50:15.962Z,661.6
2022-09-25T08:01:05.231Z,901.5
2022-09-25T08:06:28.084Z,3614.7
2022-09-25T08:11:51.057Z,926.7
2022-09-25T08:17:14.119Z,3566.5
2022-09-25T08:22:38.131Z,3456.1
2022-09-25T08:38:55.650Z,3161.8
2022-09-25T08:44:18.960Z,2964.4
2022-09-25T08:49:44.121Z,2581.4
2022-09-25T08:55:08.220Z,2214.2
2022-09-25T09:00:34.414Z,3338.4
2022-09-25T09:06:04.182Z,3239.1
2022-09-25T09:11:47.889Z,3790.9
2022-09-25T09:17:10.661Z,3414.1
2022-09-25T09:22:33.408Z,3190.3
2022-09-25T09:27:59.487Z,698.5
2022-09-25T09:33:23.405Z,3583.7
2022-09-25T09:38:47.844Z,1109.3
2022-09-25T09:44:07.955Z,476.2
2022-09-25T09:49:33.414Z,4511.6
2022-09-25T09:54:57.226Z,4651.9
2022-09-25T10:00:21.974Z,4587.5
2022-09-25T10:05:47.009Z,819.8
2022-09-25T10:11:10.508Z,386.1
2022-09-25T10:16:30.740Z,650.9
2022-09-25T10:21:57.029Z,4130.1
2022-09-25T10:27:16.319Z,683
2022-09-25T10:32:43.278Z,560.2
2022-09-25T10:39:42.665Z,2911.7
2022-09-25T10:45:08.004Z,3146.1
2022-09-25T10:50:31.117Z,3311.4
2022-09-25T10:55:54.339Z,4058
2022-09-25T11:01:17.482Z,909.8
2022-09-25T11:06:37.438Z,1258.4
2022-09-25T11:12:03.523Z,2119.9
2022-09-25T11:17:27.591Z,779.8
2022-09-25T11:28:04.871Z,885.2
2022-09-25T11:33:35.525Z,539.1
2022-09-25T11:38:59.986Z,3562.8
2022-09-25T11:44:24.938Z,4329.1
2022-09-25T11:49:48.565Z,3860.7
2022-09-25T12:00:38.009Z,2605.3
2022-09-25T12:05:56.284Z,539.8
2022-09-25T12:11:26.084Z,674.5
2022-09-25T12:16:48.749Z,4277.3
2022-09-25T12:22:15.057Z,1357.3
2022-09-25T12:27:33.933Z,297.7
2022-09-25T12:32:59.413Z,3888.4
2022-09-25T12:38:23.657Z,3511
2022-09-25T12:43:54.312Z,3758.9
2022-09-25T12:49:14.522Z,3777.9
2022-09-25T12:54:39.601Z,3673.3
2022-09-25T13:00:02.915Z,3767.7
2022-09-25T13:05:25.548Z,748.1
2022-09-25T13:10:48.267Z,631.2
2022-09-25T13:16:09.273Z,1107.7
2022-09-25T13:21:32.535Z,630.8
2022-09-25T13:26:56.110Z,2782.6
2022-09-25T13:32:22.088Z,1321.9
2022-09-25T13:37:45.674Z,2493.2
2022-09-25T13:43:08.433Z,2422.1
2022-09-25T13:48:31.007Z,2400.4
2022-09-25T13:53:53.709Z,2606.3
2022-09-25T13:59:16.419Z,2704.4
2022-09-25T14:04:38.841Z,2517.5
2022-09-25T14:10:02.468Z,2190.9
2022-09-25T14:15:28.714Z,2638.2
2022-09-25T14:20:51.545Z,2461.5
2022-09-25T14:26:13.533Z,2159.4
2022-09-25T14:31:37.786Z,2057.3
2022-09-25T14:37:03.520Z,2243.8
2022-09-25T14:42:26.151Z,2032.7
2022-09-25T14:47:48.712Z,1738.1
2022-09-25T14:53:11.188Z,1764.9
2022-09-25T14:58:41.879Z,261.2
2022-09-25T15:04:03.383Z,210.6
2022-09-25T15:09:25.307Z,195.4
2022-09-25T15:14:47.936Z,149.6
2022-09-25T15:20:16.487Z,215.4
2022-09-25T15:25:38.563Z,175.3
2022-09-25T15:31:11.766Z,150.4
2022-09-25T15:36:34.555Z,136.2
2022-09-25T15:41:56.722Z,119.1
2022-09-25T15:47:19.474Z,109.7
2022-09-25T15:52:42.080Z,100.4
2022-09-25T15:58:15.532Z,95.9
2022-09-25T16:03:38.216Z,90.3
2022-09-25T16:09:01.003Z,76.7
2022-09-25T16:14:23.514Z,115.6
2022-09-25T16:21:03.999Z,108.6
2022-09-25T16:26:27.565Z,103.4
2022-09-25T16:31:50.275Z,92.7
2022-09-25T16:37:12.877Z,65.8
2022-09-25T16:42:59.293Z,56.9
2022-09-25T16:54:10.835Z,47.7
2022-09-25T16:59:33.263Z,45.2
2022-09-25T17:04:58.860Z,43.7
2022-09-25T17:10:21.520Z,30.9
2022-09-25T17:15:48.865Z,29.3
2022-09-25T17:21:11.428Z,23
2022-09-25T17:26:33.695Z,15.1
2022-09-25T17:31:55.960Z,7
2022-09-25T17:42:55.370Z,0
2022-09-25T17:48:18.302Z,0
2022-09-25T17:53:41.038Z,0
2022-09-25T17:59:03.754Z,0
2022-09-25T18:04:26.134Z,0
2022-09-25T18:09:48.684Z,0
2022-09-25T18:15:11.096Z,0
2022-09-25T18:20:33.619Z,0
2022-09-25T18:25:59.331Z,0
2022-09-25T18:31:42.209Z,0
2022-09-25T18:42:28.013Z,0
2022-09-25T18:47:53.567Z,0
2022-09-25T18:53:16.328Z,0
2022-09-25T18:58:38.983Z,0
2022-09-25T19:04:08.971Z,0
2022-09-25T19:09:31.924Z,0
2022-09-25T19:14:57.929Z,0
2022-09-25T19:20:20.616Z,0
2022-09-25T19:25:43.539Z,0
2022-09-25T19:31:06.400Z,0
2022-09-25T19:36:28.753Z,0
2022-09-25T19:41:51.050Z,0
2022-09-25T19:47:14.502Z,0
2022-09-25T19:52:40.431Z,0
2022-09-25T19:58:02.984Z,0
2022-09-25T20:03:26.086Z,0
2022-09-25T20:08:48.908Z,0
2022-09-25T20:36:11.437Z,0
2022-09-25T20:41:34.191Z,1
2022-09-25T20:46:56.887Z,0
2022-09-25T20:52:19.742Z,0
2022-09-25T20:57:42.276Z,0
2022-09-25T21:03:05.740Z,0
2022-09-25T21:08:28.469Z,0
2022-09-25T21:14:06.161Z,0
2022-09-25T21:19:31.063Z,0
2022-09-25T21:24:53.818Z,0
2022-09-25T21:30:16.481Z,0
2022-09-25T21:41:05.644Z,0
2022-09-25T21:46:29.024Z,3
2022-09-25T21:51:51.786Z,0
2022-09-25T21:57:14.299Z,0
2022-09-25T22:02:37.441Z,0
2022-09-25T22:08:00.004Z,0
2022-09-25T22:13:23.396Z,0
2022-09-25T22:18:46.116Z,0
2022-09-25T22:24:08.608Z,0
2022-09-25T22:29:40.890Z,0
2022-09-25T22:35:03.552Z,0
2022-09-25T22:40:26.464Z,0
2022-09-25T22:45:49.575Z,0
2022-09-25T22:51:12.128Z,0
2022-09-25T22:56:34.746Z,0
2022-09-25T23:01:57.866Z,3
2022-09-25T23:12:46.948Z,0
2022-09-25T23:18:10.961Z,3
2022-09-25T23:23:33.958Z,0
2022-09-25T23:28:56.782Z,0
2022-09-25T23:34:19.912Z,0
2022-09-25T23:39:42.881Z,0
2022-09-25T23:45:05.560Z,0
2022-09-25T23:50:28.518Z,0
